Time;durP1;ratioP1;P1;durP2;ratioP2;P2;SDS_P1;SDS_P2;PMS_P1;PMS_P2;Temp;Humidity;BMP_temperature;BMP_pressure;BME280_temperature;BME280_humidity;BME280_pressure;Samples;Min_cycle;Max_cycle;Signal;HPM_P1;HPM_P2
2022/11/20 00:00:25;;;;;;;;;;;;;;;8.26;nan;101094.78;4983718;28;20004;-33
2022/11/20 00:02:50;;;;;;;;;;;;;;;8.28;nan;101095.41;4982048;28;20537;-33
2022/11/20 00:05:16;;;;;;;;;;;;;;;8.29;nan;101092.50;4981753;28;19957;-33
2022/11/20 00:07:42;;;;;;;;;;;;;;;8.28;nan;101090.06;4982828;28;19929;-34
2022/11/20 00:10:08;;;;;;;;;;;;;;;8.20;nan;101085.81;4982074;28;20077;-33
2022/11/20 00:12:33;;;;;;;;;;;;;;;8.19;nan;101084.19;4983200;28;19979;-33
2022/11/20 00:14:58;;;;;;;;;;;;;;;8.20;nan;101083.16;4984252;28;19933;-33
2022/11/20 00:17:24;;;;;;;;;;;;;;;8.21;nan;101090.13;4984733;28;20265;-33
2022/11/20 00:19:49;;;;;;;;;;;;;;;8.19;nan;101092.19;4984872;28;20315;-33
2022/11/20 00:22:14;;;;;;;;;;;;;;;8.14;nan;101092.06;4979207;28;19918;-34
2022/11/20 00:24:40;;;;;;;;;;;;;;;8.10;nan;101089.03;4979958;28;19921;-32
2022/11/20 00:27:05;;;;;;;;;;;;;;;8.12;nan;101094.97;4983800;28;19922;-34
2022/11/20 00:29:30;;;;;;;;;;;;;;;8.08;nan;101096.44;4981755;28;19972;-33
2022/11/20 00:31:55;;;;;;;;;;;;;;;8.09;nan;101091.94;4988135;28;20012;-33
2022/11/20 00:34:21;;;;;;;;;;;;;;;8.09;nan;101091.94;4988486;28;20076;-33
2022/11/20 00:36:46;;;;;;;;;;;;;;;8.09;nan;101097.25;4984087;28;20013;-33
2022/11/20 00:39:11;;;;;;;;;;;;;;;8.07;nan;101097.47;4989419;28;19917;-34
2022/11/20 00:41:37;;;;;;;;;;;;;;;8.06;nan;101101.16;4988634;28;19925;-33
2022/11/20 00:44:02;;;;;;;;;;;;;;;8.05;nan;101098.72;4986115;28;19930;-34
2022/11/20 00:46:28;;;;;;;;;;;;;;;8.04;nan;101097.91;4985642;28;19918;-35
2022/11/20 00:48:53;;;;;;;;;;;;;;;8.01;nan;101094.88;4986229;28;20006;-34
2022/11/20 00:51:21;;;;;;;;;;;;;;;8.00;nan;101099.41;4986323;28;19972;-35
2022/11/20 00:53:46;;;;;;;;;;;;;;;7.98;nan;101096.13;4989678;28;19917;-34
2022/11/20 00:56:16;;;;;;;;;;;;;;;7.99;nan;101096.97;4990377;28;19918;-34
2022/11/20 00:58:43;;;;;;;;;;;;;;;7.95;nan;101093.91;4986626;28;20476;-34
2022/11/20 01:01:10;;;;;;;;;;;;;;;7.89;nan;101102.78;4988990;28;19945;-33
2022/11/20 01:03:37;;;;;;;;;;;;;;;7.85;nan;101104.28;4984193;28;19925;-34
2022/11/20 01:06:03;;;;;;;;;;;;;;;7.81;nan;101098.56;4987354;28;19926;-34
2022/11/20 01:08:32;;;;;;;;;;;;;;;7.81;nan;101111.09;4982201;28;20396;-35
2022/11/20 01:11:02;;;;;;;;;;;;;;;7.80;nan;101109.47;4988713;28;19964;-33
2022/11/20 01:13:39;;;;;;;;;;;;;;;7.81;nan;101108.44;4988087;28;19917;-35
2022/11/20 01:16:09;;;;;;;;;;;;;;;7.81;nan;101100.44;4985314;28;19922;-33
2022/11/20 01:18:35;;;;;;;;;;;;;;;7.81;nan;101106.56;4989263;28;19924;-33
2022/11/20 01:21:08;;;;;;;;;;;;;;;7.83;nan;101109.84;4984172;28;19926;-33
2022/11/20 01:23:34;;;;;;;;;;;;;;;7.82;nan;101097.53;4982366;28;20020;-33
2022/11/20 01:26:01;;;;;;;;;;;;;;;7.82;nan;101094.88;4986637;28;19968;-34
2022/11/20 01:28:26;;;;;;;;;;;;;;;7.87;nan;101094.19;4988753;28;19918;-33
2022/11/20 01:30:52;;;;;;;;;;;;;;;7.84;nan;101094.66;4984895;28;19917;-33
2022/11/20 01:33:17;;;;;;;;;;;;;;;7.81;nan;101092.44;4986151;28;19918;-34
2022/11/20 01:35:42;;;;;;;;;;;;;;;7.81;nan;101085.25;4988177;28;19921;-34
2022/11/20 01:38:08;;;;;;;;;;;;;;;7.77;nan;101089.38;4985792;28;19922;-33
2022/11/20 01:40:33;;;;;;;;;;;;;;;7.79;nan;101094.50;4987206;28;19922;-33
2022/11/20 01:43:22;;;;;;;;;;;;;;;7.78;nan;101098.22;4983449;28;19918;-34
2022/11/20 01:46:02;;;;;;;;;;;;;;;7.80;nan;101093.47;4984536;28;20004;-34
2022/11/20 01:48:42;;;;;;;;;;;;;;;7.85;nan;101086.41;4985515;28;19941;-34
2022/11/20 01:51:15;;;;;;;;;;;;;;;7.90;nan;101091.13;4988013;28;19933;-33
2022/11/20 01:53:41;;;;;;;;;;;;;;;7.96;nan;101092.88;4988672;28;19922;-34
2022/11/20 01:56:09;;;;;;;;;;;;;;;7.98;nan;101090.81;4985936;28;20000;-34
2022/11/20 01:58:38;;;;;;;;;;;;;;;8.00;nan;101086.06;4983758;28;20398;-34
2022/11/20 02:01:04;;;;;;;;;;;;;;;7.92;nan;101089.03;4986322;28;20048;-33
2022/11/20 02:03:29;;;;;;;;;;;;;;;7.90;nan;101088.44;4987372;28;20016;-34
2022/11/20 02:06:03;;;;;;;;;;;;;;;7.91;nan;101090.06;4984570;28;19926;-34
2022/11/20 02:08:29;;;;;;;;;;;;;;;7.88;nan;101085.97;4981890;28;20344;-34
2022/11/20 02:10:54;;;;;;;;;;;;;;;7.89;nan;101081.44;4987959;28;19918;-33
2022/11/20 02:16:05;;;;;;;;;;;;;;;7.86;nan;101080.03;4986204;28;19980;-34
2022/11/20 02:18:30;;;;;;;;;;;;;;;7.83;nan;101074.34;4984066;28;21297;-34
2022/11/20 02:21:02;;;;;;;;;;;;;;;7.82;nan;101080.72;4982739;28;19976;-34
2022/11/20 02:23:34;;;;;;;;;;;;;;;7.79;nan;101071.31;4986710;28;19917;-33
2022/11/20 02:26:02;;;;;;;;;;;;;;;7.80;nan;101077.47;4987218;28;19926;-33
2022/11/20 02:28:27;;;;;;;;;;;;;;;7.80;nan;101075.59;4986196;28;19964;-33
2022/11/20 02:30:52;;;;;;;;;;;;;;;7.86;nan;101081.91;4985309;28;19969;-33
2022/11/20 02:33:18;;;;;;;;;;;;;;;7.89;nan;101082.25;4981725;28;19957;-34
2022/11/20 02:35:44;;;;;;;;;;;;;;;7.93;nan;101088.00;4985969;28;19925;-34
2022/11/20 02:38:10;;;;;;;;;;;;;;;7.93;nan;101081.84;4988701;28;19918;-34
2022/11/20 02:40:35;;;;;;;;;;;;;;;7.89;nan;101084.94;4985619;28;20291;-34
2022/11/20 02:43:01;;;;;;;;;;;;;;;7.84;nan;101081.31;4985889;28;19926;-33
2022/11/20 02:45:26;;;;;;;;;;;;;;;7.82;nan;101081.53;4982607;28;20192;-33
2022/11/20 02:47:51;;;;;;;;;;;;;;;7.78;nan;101084.88;4983472;28;19918;-33
2022/11/20 02:50:17;;;;;;;;;;;;;;;7.78;nan;101084.88;4987636;28;19922;-33
2022/11/20 02:52:42;;;;;;;;;;;;;;;7.77;nan;101078.72;4980380;28;19926;-35
2022/11/20 02:55:08;;;;;;;;;;;;;;;7.76;nan;101076.28;4984071;28;20426;-34
2022/11/20 02:57:33;;;;;;;;;;;;;;;7.72;nan;101081.25;4985594;28;19981;-33
2022/11/20 02:59:58;;;;;;;;;;;;;;;7.70;nan;101077.97;4987090;28;19957;-34
2022/11/20 03:02:24;;;;;;;;;;;;;;;7.68;nan;101071.22;4987368;28;19965;-34
2022/11/20 03:04:49;;;;;;;;;;;;;;;7.67;nan;101066.91;4981460;28;19925;-33
2022/11/20 03:07:14;;;;;;;;;;;;;;;7.68;nan;101073.88;4985175;28;19934;-34
2022/11/20 03:09:40;;;;;;;;;;;;;;;7.67;nan;101074.91;4983265;28;19933;-33
2022/11/20 03:12:05;;;;;;;;;;;;;;;7.65;nan;101074.31;4984295;28;19924;-33
2022/11/20 03:14:31;;;;;;;;;;;;;;;7.58;nan;101069.88;4986105;28;19925;-35
2022/11/20 03:16:56;;;;;;;;;;;;;;;7.57;nan;101076.25;4987531;28;19956;-33
2022/11/20 03:19:22;;;;;;;;;;;;;;;7.56;nan;101071.97;4985015;28;20288;-34
2022/11/20 03:21:47;;;;;;;;;;;;;;;7.59;nan;101068.03;4987390;28;19976;-33
2022/11/20 03:24:13;;;;;;;;;;;;;;;7.60;nan;101071.50;4982468;28;20288;-34
2022/11/20 03:26:38;;;;;;;;;;;;;;;7.62;nan;101064.09;4984099;28;19929;-33
2022/11/20 03:29:04;;;;;;;;;;;;;;;7.65;nan;101074.31;4983940;28;19921;-33
2022/11/20 03:31:34;;;;;;;;;;;;;;;7.64;nan;101062.03;4985521;28;19924;-33
2022/11/20 03:33:59;;;;;;;;;;;;;;;7.65;nan;101056.47;4984695;28;20009;-33
2022/11/20 03:36:25;;;;;;;;;;;;;;;7.69;nan;101054.16;4986865;28;20008;-33
2022/11/20 03:38:52;;;;;;;;;;;;;;;7.74;nan;101051.69;4982770;28;19972;-33
2022/11/20 03:41:19;;;;;;;;;;;;;;;7.77;nan;101051.22;4985796;28;20012;-34
2022/11/20 03:43:48;;;;;;;;;;;;;;;7.74;nan;101049.00;4983093;28;20016;-34
2022/11/20 03:46:14;;;;;;;;;;;;;;;7.71;nan;101049.44;4984916;28;19940;-34
2022/11/20 03:48:39;;;;;;;;;;;;;;;7.72;nan;101043.06;4983082;28;20671;-33
2022/11/20 03:51:11;;;;;;;;;;;;;;;7.76;nan;101044.28;4985086;28;19917;-33
2022/11/20 03:53:37;;;;;;;;;;;;;;;7.82;nan;101046.03;4984663;28;20346;-33
2022/11/20 03:56:03;;;;;;;;;;;;;;;7.90;nan;101043.09;4981109;28;19926;-33
2022/11/20 03:58:28;;;;;;;;;;;;;;;7.89;nan;101044.91;4983788;28;20292;-33
2022/11/20 04:00:53;;;;;;;;;;;;;;;7.86;nan;101040.03;4985921;28;19924;-33
2022/11/20 04:03:19;;;;;;;;;;;;;;;7.81;nan;101039.88;4983382;28;19922;-35
2022/11/20 04:05:44;;;;;;;;;;;;;;;7.74;nan;101031.16;4981966;28;19921;-34
2022/11/20 04:08:09;;;;;;;;;;;;;;;7.69;nan;101022.16;4982581;28;19918;-33
2022/11/20 04:10:35;;;;;;;;;;;;;;;7.67;nan;101024.25;4984151;28;19922;-34
2022/11/20 04:13:00;;;;;;;;;;;;;;;7.68;nan;101023.22;4986412;28;19929;-34
2022/11/20 04:15:25;;;;;;;;;;;;;;;7.71;nan;101023.56;4984375;28;19918;-33
2022/11/20 04:17:51;;;;;;;;;;;;;;;7.69;nan;101019.50;4983014;28;20351;-33
2022/11/20 04:20:16;;;;;;;;;;;;;;;7.65;nan;101026.31;4984374;28;19944;-35
2022/11/20 04:22:41;;;;;;;;;;;;;;;7.59;nan;101022.69;4982765;28;20284;-35
2022/11/20 04:25:07;;;;;;;;;;;;;;;7.53;nan;101023.56;4985183;28;19929;-34
2022/11/20 04:27:33;;;;;;;;;;;;;;;7.47;nan;101024.47;4983051;28;19921;-34
2022/11/20 04:29:58;;;;;;;;;;;;;;;7.41;nan;101020.03;4986519;28;20177;-35
2022/11/20 04:32:23;;;;;;;;;;;;;;;7.35;nan;101032.34;4983414;28;20213;-33
2022/11/20 04:34:48;;;;;;;;;;;;;;;7.33;nan;101028.28;4983602;28;20037;-34
2022/11/20 04:37:14;;;;;;;;;;;;;;;7.28;nan;101028.94;4981320;28;19972;-34
2022/11/20 04:39:39;;;;;;;;;;;;;;;7.25;nan;101022.22;4985887;28;20391;-34
2022/11/20 04:44:48;;;;;;;;;;;;;;;7.21;nan;101025.53;4984159;28;19929;-34
2022/11/20 04:47:14;;;;;;;;;;;;;;;7.22;nan;101021.84;4985490;28;19918;-33
2022/11/20 04:49:39;;;;;;;;;;;;;;;7.24;nan;101030.44;4985808;28;19933;-34
2022/11/20 04:52:04;;;;;;;;;;;;;;;7.27;nan;101025.47;4983158;28;20394;-34
2022/11/20 04:54:30;;;;;;;;;;;;;;;7.27;nan;101025.47;4983454;28;20284;-33
2022/11/20 04:56:55;;;;;;;;;;;;;;;7.25;nan;101021.41;4985491;28;19941;-33
2022/11/20 04:59:20;;;;;;;;;;;;;;;7.25;nan;101021.41;4984855;28;20304;-33
2022/11/20 05:01:46;;;;;;;;;;;;;;;7.26;nan;101023.03;4984186;28;20295;-33
2022/11/20 05:04:11;;;;;;;;;;;;;;;7.25;nan;101018.72;4985397;28;19922;-33
2022/11/20 05:06:36;;;;;;;;;;;;;;;7.28;nan;101012.97;4983073;28;19917;-34
2022/11/20 05:09:02;;;;;;;;;;;;;;;7.26;nan;101005.19;4983721;28;19925;-34
2022/11/20 05:11:28;;;;;;;;;;;;;;;7.27;nan;101001.47;4985132;28;19925;-33
2022/11/20 05:13:54;;;;;;;;;;;;;;;7.26;nan;101001.69;4981408;28;19925;-33
2022/11/20 05:16:21;;;;;;;;;;;;;;;7.25;nan;101003.56;4983487;28;20292;-35
2022/11/20 05:18:46;;;;;;;;;;;;;;;7.24;nan;101003.78;4989157;28;20229;-34
2022/11/20 05:21:12;;;;;;;;;;;;;;;7.22;nan;101001.34;4980764;28;20341;-35
2022/11/20 05:23:38;;;;;;;;;;;;;;;7.22;nan;101006.66;4989838;28;20008;-33
2022/11/20 05:26:05;;;;;;;;;;;;;;;7.24;nan;101009.09;4988479;28;20046;-33
2022/11/20 05:28:31;;;;;;;;;;;;;;;7.23;nan;101008.28;4986200;28;20426;-33
2022/11/20 05:31:03;;;;;;;;;;;;;;;7.22;nan;101004.00;4985892;28;19918;-33
2022/11/20 05:33:28;;;;;;;;;;;;;;;7.24;nan;101006.44;4983375;28;19937;-33
2022/11/20 05:35:57;;;;;;;;;;;;;;;7.25;nan;101016.06;4987254;28;19918;-33
2022/11/20 05:38:22;;;;;;;;;;;;;;;7.26;nan;101007.03;4990217;28;19929;-33
2022/11/20 05:40:48;;;;;;;;;;;;;;;7.26;nan;101001.69;4988518;28;19922;-34
2022/11/20 05:43:13;;;;;;;;;;;;;;;7.27;nan;101006.81;4984798;28;19948;-33
2022/11/20 05:45:38;;;;;;;;;;;;;;;7.30;nan;101002.06;4989276;28;19921;-34
2022/11/20 05:48:04;;;;;;;;;;;;;;;7.29;nan;100998.59;4983566;28;19979;-33
2022/11/20 05:50:29;;;;;;;;;;;;;;;7.28;nan;100994.31;4987637;28;20291;-34
2022/11/20 05:52:55;;;;;;;;;;;;;;;7.25;nan;100992.09;4988929;28;20391;-33
2022/11/20 05:55:20;;;;;;;;;;;;;;;7.24;nan;100993.13;4987309;28;19922;-33
2022/11/20 05:57:45;;;;;;;;;;;;;;;7.20;nan;100991.94;4988436;28;20253;-33
2022/11/20 06:00:11;;;;;;;;;;;;;;;7.22;nan;100989.84;4983891;28;19972;-33
2022/11/20 06:02:36;;;;;;;;;;;;;;;7.22;nan;100995.19;4984599;28;20380;-33
2022/11/20 06:05:02;;;;;;;;;;;;;;;7.18;nan;100994.81;4987348;28;19929;-34
2022/11/20 06:07:27;;;;;;;;;;;;;;;7.17;nan;100992.34;4988001;28;20170;-34
2022/11/20 06:09:52;;;;;;;;;;;;;;;7.19;nan;100995.63;4988695;28;19929;-33
2022/11/20 06:12:18;;;;;;;;;;;;;;;7.21;nan;100991.72;4983199;28;19922;-33
2022/11/20 06:14:43;;;;;;;;;;;;;;;7.22;nan;100992.53;4986612;28;19921;-35
2022/11/20 06:17:08;;;;;;;;;;;;;;;7.20;nan;100990.09;4987619;28;19922;-35
2022/11/20 06:19:34;;;;;;;;;;;;;;;7.19;nan;100992.97;4984422;28;19929;-33
2022/11/20 06:21:59;;;;;;;;;;;;;;;7.19;nan;100984.97;4981908;28;19918;-35
2022/11/20 06:24:25;;;;;;;;;;;;;;;7.19;nan;100983.13;4984888;28;20016;-33
2022/11/20 06:26:50;;;;;;;;;;;;;;;7.19;nan;100987.63;4988708;28;19964;-33
2022/11/20 06:29:15;;;;;;;;;;;;;;;7.15;nan;100992.56;4984197;28;19925;-34
2022/11/20 06:31:42;;;;;;;;;;;;;;;7.18;nan;100999.31;4986361;28;20043;-33
2022/11/20 06:34:08;;;;;;;;;;;;;;;7.18;nan;100994.81;4984918;28;19918;-33
2022/11/20 06:36:33;;;;;;;;;;;;;;;7.23;nan;100997.63;4987929;28;20520;-33
2022/11/20 06:38:59;;;;;;;;;;;;;;;7.26;nan;100994.53;4986457;28;19972;-34
2022/11/20 06:41:25;;;;;;;;;;;;;;;7.26;nan;100996.38;4987181;28;19981;-33
2022/11/20 06:43:50;;;;;;;;;;;;;;;7.26;nan;100996.38;4987478;28;19957;-33
2022/11/20 06:46:19;;;;;;;;;;;;;;;7.28;nan;101000.44;4987219;28;20359;-34
2022/11/20 06:48:44;;;;;;;;;;;;;;;7.25;nan;100992.09;4984048;28;20410;-33
2022/11/20 06:51:10;;;;;;;;;;;;;;;7.25;nan;100989.41;4987348;28;19918;-33
2022/11/20 06:53:36;;;;;;;;;;;;;;;7.20;nan;100992.75;4983380;28;19930;-33
2022/11/20 06:56:02;;;;;;;;;;;;;;;7.23;nan;100989.63;4985513;28;19932;-34
2022/11/20 06:58:27;;;;;;;;;;;;;;;7.25;nan;100982.22;4983280;28;19917;-33
2022/11/20 07:00:53;;;;;;;;;;;;;;;7.27;nan;100977.50;4981247;28;19926;-32
2022/11/20 07:03:18;;;;;;;;;;;;;;;7.30;nan;100981.56;4983915;28;19922;-33
2022/11/20 07:05:45;;;;;;;;;;;;;;;7.31;nan;100979.72;4987333;28;20283;-35
2022/11/20 07:08:11;;;;;;;;;;;;;;;7.32;nan;100982.16;4985183;28;19918;-33
2022/11/20 07:10:36;;;;;;;;;;;;;;;7.33;nan;100980.31;4983527;28;19922;-33
2022/11/20 07:13:02;;;;;;;;;;;;;;;7.29;nan;100974.59;4982658;28;19933;-33
2022/11/20 07:15:28;;;;;;;;;;;;;;;7.24;nan;100974.47;4982211;28;20012;-33
2022/11/20 07:17:53;;;;;;;;;;;;;;;7.24;nan;100975.28;4986893;28;19952;-33
2022/11/20 07:20:18;;;;;;;;;;;;;;;7.20;nan;100973.28;4985842;28;19918;-33
2022/11/20 07:22:44;;;;;;;;;;;;;;;7.20;nan;100970.63;4979123;28;19918;-34
2022/11/20 07:25:09;;;;;;;;;;;;;;;7.23;nan;100970.16;4973566;28;20352;-34
2022/11/20 07:27:35;;;;;;;;;;;;;;;7.23;nan;100978.16;4984423;28;20008;-33
2022/11/20 07:30:01;;;;;;;;;;;;;;;7.20;nan;100963.44;4987276;28;19926;-33
2022/11/20 07:32:26;;;;;;;;;;;;;;;7.19;nan;100963.66;4984657;28;19973;-33
2022/11/20 07:34:52;;;;;;;;;;;;;;;7.15;nan;100967.78;4983974;28;19918;-33
2022/11/20 07:37:17;;;;;;;;;;;;;;;7.15;nan;100970.44;4985732;28;19921;-34
2022/11/20 07:39:43;;;;;;;;;;;;;;;7.16;nan;100964.06;4983530;28;19961;-34
2022/11/20 07:42:09;;;;;;;;;;;;;;;7.17;nan;100968.38;4987907;28;19920;-34
2022/11/20 07:44:34;;;;;;;;;;;;;;;7.17;nan;100971.84;4981718;28;19932;-32
2022/11/20 07:47:00;;;;;;;;;;;;;;;7.17;nan;100968.38;4985401;28;19918;-33
2022/11/20 07:49:25;;;;;;;;;;;;;;;7.17;nan;100968.38;4985464;28;19925;-34
2022/11/20 07:51:53;;;;;;;;;;;;;;;7.19;nan;100969.00;4986414;28;20444;-33
2022/11/20 07:54:19;;;;;;;;;;;;;;;7.18;nan;100968.16;4986603;28;19917;-33
2022/11/20 07:56:44;;;;;;;;;;;;;;;7.21;nan;100966.91;4982583;28;19922;-33
2022/11/20 07:59:11;;;;;;;;;;;;;;;7.22;nan;100966.69;4984689;28;20012;-33
2022/11/20 08:01:37;;;;;;;;;;;;;;;7.19;nan;100959.13;4983064;28;19993;-33
2022/11/20 08:04:02;;;;;;;;;;;;;;;7.21;nan;100966.91;4984005;28;20357;-33
2022/11/20 08:06:28;;;;;;;;;;;;;;;7.19;nan;100961.00;4983316;28;19922;-33
2022/11/20 08:08:53;;;;;;;;;;;;;;;7.25;nan;100963.56;4984493;28;19917;-33
2022/11/20 08:14:11;;;;;;;;;;;;;;;7.16;nan;100956.06;4985137;28;19924;-33
2022/11/20 08:16:37;;;;;;;;;;;;;;;7.19;nan;100959.13;4982385;28;19983;-33
2022/11/20 08:19:02;;;;;;;;;;;;;;;7.21;nan;100956.25;4983659;28;20339;-35
2022/11/20 08:21:28;;;;;;;;;;;;;;;7.19;nan;100955.66;4982360;28;19921;-33
2022/11/20 08:23:53;;;;;;;;;;;;;;;7.14;nan;100955.47;4984218;28;20139;-35
2022/11/20 08:26:20;;;;;;;;;;;;;;;7.11;nan;100959.41;4984441;28;19954;-34
2022/11/20 08:28:45;;;;;;;;;;;;;;;7.12;nan;100953.03;4984751;28;19921;-33
2022/11/20 08:31:11;;;;;;;;;;;;;;;7.18;nan;100946.84;4981075;28;19984;-33
2022/11/20 08:33:36;;;;;;;;;;;;;;;7.17;nan;100950.53;4984168;28;20327;-33
2022/11/20 08:36:02;;;;;;;;;;;;;;;7.18;nan;100956.66;4984664;28;20393;-33
2022/11/20 08:38:29;;;;;;;;;;;;;;;7.17;nan;100955.03;4980109;28;19961;-33
2022/11/20 08:43:45;;;;;;;;;;;;;;;6.98;nan;100936.38;4980125;28;20398;-32
2022/11/20 08:46:11;;;;;;;;;;;;;;;6.94;nan;100940.50;4981784;28;19925;-32
2022/11/20 08:48:36;;;;;;;;;;;;;;;6.92;nan;100947.91;4982950;28;19925;-32
2022/11/20 08:51:02;;;;;;;;;;;;;;;6.95;nan;100944.78;4984996;28;20036;-33
2022/11/20 08:53:27;;;;;;;;;;;;;;;6.98;nan;100939.03;4985340;28;19961;-33
2022/11/20 08:55:53;;;;;;;;;;;;;;;7.02;nan;100936.75;4987893;28;20395;-34
2022/11/20 08:58:18;;;;;;;;;;;;;;;7.10;nan;100948.97;4986103;28;20053;-33
2022/11/20 09:00:43;;;;;;;;;;;;;;;7.04;nan;100944.53;4987571;28;20293;-35
2022/11/20 09:03:09;;;;;;;;;;;;;;;6.98;nan;100944.34;4988136;28;20331;-33
2022/11/20 09:05:34;;;;;;;;;;;;;;;7.01;nan;100943.13;4988821;28;19930;-33
2022/11/20 09:07:59;;;;;;;;;;;;;;;6.97;nan;100947.25;4986370;28;20005;-33
2022/11/20 09:10:25;;;;;;;;;;;;;;;6.97;nan;100944.56;4987544;28;19918;-33
2022/11/20 09:12:51;;;;;;;;;;;;;;;7.01;nan;100944.97;4987962;28;19926;-33
2022/11/20 09:15:17;;;;;;;;;;;;;;;7.01;nan;100944.97;4989136;28;19993;-34
2022/11/20 09:17:42;;;;;;;;;;;;;;;6.98;nan;100946.22;4988438;28;20202;-33
2022/11/20 09:20:08;;;;;;;;;;;;;;;6.97;nan;100945.38;4988392;28;19956;-33
2022/11/20 09:22:33;;;;;;;;;;;;;;;6.98;nan;100948.88;4988023;28;19929;-34
2022/11/20 09:24:58;;;;;;;;;;;;;;;6.97;nan;100948.06;4988870;28;20165;-33
2022/11/20 09:27:24;;;;;;;;;;;;;;;7.00;nan;100938.00;4988649;28;19917;-33
2022/11/20 09:29:49;;;;;;;;;;;;;;;7.02;nan;100939.44;4985926;28;19918;-35
2022/11/20 09:32:14;;;;;;;;;;;;;;;7.02;nan;100941.28;4982725;28;20013;-33
2022/11/20 09:34:40;;;;;;;;;;;;;;;7.07;nan;100936.91;4983159;28;19973;-34
2022/11/20 09:37:05;;;;;;;;;;;;;;;7.03;nan;100937.56;4986949;28;20378;-32
2022/11/20 09:39:30;;;;;;;;;;;;;;;7.03;nan;100938.38;4988270;28;19932;-33
2022/11/20 09:42:09;;;;;;;;;;;;;;;7.05;nan;100940.84;4983523;28;19921;-35
2022/11/20 09:44:53;;;;;;;;;;;;;;;7.12;nan;100937.06;4983283;28;19929;-33
2022/11/20 09:47:30;;;;;;;;;;;;;;;7.15;nan;100941.94;4986771;28;20538;-33
2022/11/20 09:49:55;;;;;;;;;;;;;;;7.16;nan;100942.75;4985144;28;20089;-33
2022/11/20 09:52:26;;;;;;;;;;;;;;;7.17;nan;100933.72;4985831;28;19924;-34
2022/11/20 09:54:52;;;;;;;;;;;;;;;7.20;nan;100935.97;4982539;28;19918;-34
2022/11/20 09:57:21;;;;;;;;;;;;;;;7.26;nan;100930.56;4984748;28;19918;-33
2022/11/20 09:59:49;;;;;;;;;;;;;;;7.20;nan;100928.78;4985616;28;19961;-35
2022/11/20 10:02:41;;;;;;;;;;;;;;;7.18;nan;100930.03;4986826;28;20418;-33
2022/11/20 10:05:07;;;;;;;;;;;;;;;7.16;nan;100924.09;4979037;28;19957;-34
2022/11/20 10:07:40;;;;;;;;;;;;;;;7.14;nan;100928.84;4986841;28;20234;-32
2022/11/20 10:10:05;;;;;;;;;;;;;;;7.14;nan;100923.50;4986193;28;19929;-33
2022/11/20 10:12:49;;;;;;;;;;;;;;;7.12;nan;100918.41;4987735;28;19918;-33
2022/11/20 10:15:28;;;;;;;;;;;;;;;7.16;nan;100913.44;4983961;28;19939;-33
2022/11/20 10:18:00;;;;;;;;;;;;;;;7.18;nan;100908.69;4985844;28;19949;-34
2022/11/20 10:20:43;;;;;;;;;;;;;;;7.19;nan;100915.69;4982912;28;19924;-32
2022/11/20 10:23:20;;;;;;;;;;;;;;;7.22;nan;100915.25;4979713;28;19934;-33
2022/11/20 10:26:05;;;;;;;;;;;;;;;7.27;nan;100907.38;4982011;28;19922;-33
2022/11/20 10:28:38;;;;;;;;;;;;;;;7.35;nan;100909.75;4982470;28;19918;-34
2022/11/20 10:31:08;;;;;;;;;;;;;;;7.40;nan;100904.56;4983705;28;19921;-33
2022/11/20 10:33:37;;;;;;;;;;;;;;;7.45;nan;100910.03;4983908;28;20329;-34
2022/11/20 10:36:13;;;;;;;;;;;;;;;7.49;nan;100903.22;4985377;28;20319;-33
2022/11/20 10:38:42;;;;;;;;;;;;;;;7.50;nan;100902.19;4986052;28;19917;-33
2022/11/20 10:41:26;;;;;;;;;;;;;;;7.52;nan;100896.63;4982636;28;19925;-33
2022/11/20 10:44:12;;;;;;;;;;;;;;;7.55;nan;100891.69;4984697;28;20459;-35
2022/11/20 10:46:44;;;;;;;;;;;;;;;7.58;nan;100899.22;4982450;28;19979;-33
2022/11/20 10:49:17;;;;;;;;;;;;;;;7.55;nan;100894.34;4985661;28;19925;-33
2022/11/20 10:52:01;;;;;;;;;;;;;;;7.53;nan;100895.59;4983483;28;19918;-34
2022/11/20 10:54:30;;;;;;;;;;;;;;;7.54;nan;100899.88;4982181;28;19922;-34
2022/11/20 10:57:13;;;;;;;;;;;;;;;7.53;nan;100893.72;4979481;28;20535;-33
2022/11/20 10:59:50;;;;;;;;;;;;;;;7.52;nan;100892.09;4984343;28;20716;-33
2022/11/20 11:02:23;;;;;;;;;;;;;;;7.57;nan;100894.94;4984277;28;20004;-33
2022/11/20 11:04:52;;;;;;;;;;;;;;;7.57;nan;100889.59;4984272;28;20571;-34
2022/11/20 11:07:20;;;;;;;;;;;;;;;7.62;nan;100890.78;4986332;28;19917;-34
2022/11/20 11:10:08;;;;;;;;;;;;;;;7.67;nan;100888.25;4981873;28;19940;-33
2022/11/20 11:12:33;;;;;;;;;;;;;;;7.67;nan;100890.91;4982186;28;19925;-32
2022/11/20 11:14:59;;;;;;;;;;;;;;;7.65;nan;100879.66;4978950;28;19925;-33
2022/11/20 11:17:27;;;;;;;;;;;;;;;7.64;nan;100884.16;4982408;28;19928;-33
2022/11/20 11:20:06;;;;;;;;;;;;;;;7.65;nan;100883.13;4981848;28;19925;-33
2022/11/20 11:22:33;;;;;;;;;;;;;;;7.67;nan;100881.06;4985709;28;19928;-34
2022/11/20 11:24:59;;;;;;;;;;;;;;;7.74;nan;100880.97;4980161;28;20012;-34
2022/11/20 11:27:25;;;;;;;;;;;;;;;7.75;nan;100877.28;4984491;28;20336;-33
2022/11/20 11:30:00;;;;;;;;;;;;;;;7.75;nan;100877.28;4984232;28;20058;-34
2022/11/20 11:32:26;;;;;;;;;;;;;;;7.75;nan;100871.94;4986216;28;19925;-33
2022/11/20 11:35:02;;;;;;;;;;;;;;;7.78;nan;100871.47;4985651;28;19922;-33
2022/11/20 11:37:33;;;;;;;;;;;;;;;7.74;nan;100865.78;4984372;28;19917;-35
2022/11/20 11:39:59;;;;;;;;;;;;;;;7.73;nan;100868.69;4981307;28;20032;-34
2022/11/20 11:42:24;;;;;;;;;;;;;;;7.72;nan;100872.38;4981737;28;20028;-33
2022/11/20 11:45:05;;;;;;;;;;;;;;;7.73;nan;100871.34;4976094;28;19937;-33
2022/11/20 11:47:36;;;;;;;;;;;;;;;7.75;nan;100874.59;4982930;28;19965;-34
2022/11/20 11:50:11;;;;;;;;;;;;;;;7.78;nan;100866.16;4972860;28;19922;-33
2022/11/20 11:52:41;;;;;;;;;;;;;;;7.77;nan;100873.34;4977709;28;20108;-33
2022/11/20 11:55:12;;;;;;;;;;;;;;;7.73;nan;100872.16;4980436;28;19928;-33
2022/11/20 11:57:46;;;;;;;;;;;;;;;7.75;nan;100866.59;4976859;28;19921;-33
2022/11/20 12:00:13;;;;;;;;;;;;;;;7.72;nan;100859.88;4983896;28;19921;-34
2022/11/20 12:02:38;;;;;;;;;;;;;;;7.73;nan;100864.16;4983299;28;21085;-33
2022/11/20 12:05:12;;;;;;;;;;;;;;;7.69;nan;100857.63;4980295;28;19925;-33
2022/11/20 12:08:07;;;;;;;;;;;;;;;7.67;nan;100848.22;4983388;28;19936;-33
2022/11/20 12:10:33;;;;;;;;;;;;;;;7.66;nan;100854.63;4976987;28;19926;-33
2022/11/20 12:13:04;;;;;;;;;;;;;;;7.62;nan;100848.09;4982701;28;19922;-33
2022/11/20 12:15:30;;;;;;;;;;;;;;;7.62;nan;100851.59;4982633;28;19963;-33
2022/11/20 12:17:56;;;;;;;;;;;;;;;7.61;nan;100844.63;4981068;28;19922;-35
2022/11/20 12:20:28;;;;;;;;;;;;;;;7.61;nan;100844.63;4975807;28;20225;-33
2022/11/20 12:23:03;;;;;;;;;;;;;;;7.58;nan;100845.91;4979491;28;20167;-33
2022/11/20 12:25:33;;;;;;;;;;;;;;;7.57;nan;100844.28;4981989;28;19929;-33
2022/11/20 12:28:01;;;;;;;;;;;;;;;7.58;nan;100840.56;4986529;28;19928;-34
2022/11/20 12:30:27;;;;;;;;;;;;;;;7.60;nan;100839.53;4988051;28;19922;-33
2022/11/20 12:33:30;;;;;;;;;;;;;;;7.60;nan;100847.53;4983385;28;20411;-33
2022/11/20 12:35:58;;;;;;;;;;;;;;;7.55;nan;100850.88;4911821;29;19919;-35
2022/11/20 12:38:26;;;;;;;;;;;;;;;7.52;nan;100841.44;4916099;29;19923;-34
2022/11/20 12:41:03;;;;;;;;;;;;;;;7.55;nan;100837.53;4949588;28;20459;-33
2022/11/20 12:46:40;;;;;;;;;;;;;;;7.51;nan;100831.81;4986013;28;20224;-34
2022/11/20 12:49:05;;;;;;;;;;;;;;;7.51;nan;100829.16;4975684;28;20308;-33
2022/11/20 12:51:50;;;;;;;;;;;;;;;7.53;nan;100829.75;4981750;28;20200;-33
2022/11/20 12:54:52;;;;;;;;;;;;;;;7.51;nan;100831.81;4977971;28;20376;-34
2022/11/20 12:57:37;;;;;;;;;;;;;;;7.49;nan;100827.75;4916930;29;19927;-33
2022/11/20 13:00:09;;;;;;;;;;;;;;;7.46;nan;100822.88;4980419;28;20024;-33
2022/11/20 13:02:53;;;;;;;;;;;;;;;7.46;nan;100825.56;4985651;28;19922;-33
2022/11/20 13:05:21;;;;;;;;;;;;;;;7.50;nan;100824.88;4985526;28;19926;-33
2022/11/20 13:07:47;;;;;;;;;;;;;;;7.50;nan;100827.53;4985200;28;19976;-34
2022/11/20 13:10:16;;;;;;;;;;;;;;;7.50;nan;100816.88;4983957;28;19929;-33
2022/11/20 13:12:45;;;;;;;;;;;;;;;7.52;nan;100820.13;4981808;28;20119;-34
2022/11/20 13:15:23;;;;;;;;;;;;;;;7.52;nan;100822.78;4983841;28;19988;-33
2022/11/20 13:17:59;;;;;;;;;;;;;;;7.57;nan;100817.63;4983701;28;20374;-34
2022/11/20 13:20:24;;;;;;;;;;;;;;;7.54;nan;100822.56;4987897;28;19968;-33
2022/11/20 13:22:51;;;;;;;;;;;;;;;7.48;nan;100824.28;4984235;28;19925;-35
2022/11/20 13:25:27;;;;;;;;;;;;;;;7.48;nan;100818.13;4981500;28;19926;-34